createdAt,value
2022-11-16T00:01:49.579Z,21.42
2022-11-16T00:05:08.783Z,14.75
2022-11-16T00:08:05.970Z,16.83
2022-11-16T00:11:06.975Z,20.45
2022-11-16T00:13:55.607Z,18.77
2022-11-16T00:16:44.539Z,19.13
2022-11-16T00:19:33.042Z,17.95
2022-11-16T00:22:21.574Z,17.85
2022-11-16T00:25:12.862Z,21.90
2022-11-16T00:28:01.199Z,17.77
2022-11-16T00:31:02.516Z,16.95
2022-11-16T00:33:52.645Z,17.95
2022-11-16T00:36:40.923Z,14.25
2022-11-16T00:39:29.043Z,20.73
2022-11-16T00:42:19.868Z,15.45
2022-11-16T00:45:08.730Z,12.77
2022-11-16T00:48:00.455Z,13.73
2022-11-16T00:50:49.292Z,15.40
2022-11-16T00:53:39.299Z,15.40
2022-11-16T00:56:27.541Z,16.20
2022-11-16T00:59:15.524Z,16.00
2022-11-16T01:02:03.666Z,14.25
2022-11-16T01:04:51.810Z,14.23
2022-11-16T01:07:41.286Z,14.45
2022-11-16T01:10:30.334Z,15.10
2022-11-16T01:13:18.511Z,16.40
2022-11-16T01:16:06.812Z,20.65
2022-11-16T01:18:55.698Z,17.58
2022-11-16T01:21:43.632Z,15.85
2022-11-16T01:24:32.127Z,19.27
2022-11-16T01:27:20.065Z,17.92
2022-11-16T01:30:11.821Z,16.63
2022-11-16T01:32:59.893Z,18.48
2022-11-16T01:35:47.782Z,17.63
2022-11-16T01:38:36.226Z,16.90
2022-11-16T01:41:26.228Z,17.17
2022-11-16T01:44:32.510Z,16.13
2022-11-16T01:47:20.487Z,15.93
2022-11-16T01:50:23.810Z,16.92
2022-11-16T01:53:14.786Z,20.98
2022-11-16T01:56:02.896Z,23.25
2022-11-16T01:58:51.533Z,18.08
2022-11-16T02:01:39.761Z,17.58
2022-11-16T02:04:28.188Z,15.70
2022-11-16T02:08:12.354Z,16.65
2022-11-16T02:11:27.646Z,18.42
2022-11-16T02:14:35.455Z,20.13
2022-11-16T02:17:41.766Z,19.33
2022-11-16T02:21:06.901Z,20.88
2022-11-16T02:24:20.432Z,18.17
2022-11-16T02:27:36.148Z,16.23
2022-11-16T02:30:24.371Z,23.70
2022-11-16T02:33:21.310Z,21.77
2022-11-16T02:36:14.613Z,23.63
2022-11-16T02:39:10.308Z,20.60
2022-11-16T02:41:59.850Z,22.45
2022-11-16T02:44:51.856Z,20.25
2022-11-16T02:47:41.972Z,24.45
2022-11-16T02:50:31.184Z,24.63
2022-11-16T02:53:22.223Z,23.08
2022-11-16T02:56:13.775Z,21.40
2022-11-16T02:59:02.085Z,23.48
2022-11-16T03:02:20.270Z,23.08
2022-11-16T03:05:15.877Z,22.25
2022-11-16T03:08:20.031Z,23.63
2022-11-16T03:11:28.879Z,23.50
2022-11-16T03:14:21.039Z,29.85
2022-11-16T03:17:17.856Z,19.70
2022-11-16T03:20:14.210Z,26.20
2022-11-16T03:23:07.591Z,24.05
2022-11-16T03:25:58.321Z,22.27
2022-11-16T03:29:13.431Z,22.52
2022-11-16T03:32:21.214Z,22.90
2022-11-16T03:35:48.627Z,27.52
2022-11-16T03:38:39.970Z,30.70
2022-11-16T03:41:31.115Z,29.67
2022-11-16T03:44:20.262Z,27.95
2022-11-16T03:47:08.152Z,33.58
2022-11-16T03:49:56.001Z,37.95
2022-11-16T03:52:43.962Z,35.05
2022-11-16T03:55:31.999Z,35.85
2022-11-16T03:58:20.019Z,44.67
2022-11-16T04:01:08.517Z,43.88
2022-11-16T04:03:56.393Z,26.80
2022-11-16T04:07:02.886Z,28.73
2022-11-16T04:10:10.001Z,29.33
2022-11-16T04:13:18.377Z,28.40
2022-11-16T04:16:28.000Z,27.83
2022-11-16T04:19:34.423Z,29.90
2022-11-16T04:22:47.419Z,29.42
2022-11-16T04:25:39.328Z,30.88
2022-11-16T04:28:32.283Z,26.23
2022-11-16T04:32:00.624Z,28.37
2022-11-16T04:35:07.250Z,27.92
2022-11-16T04:37:57.597Z,27.20
2022-11-16T04:40:45.499Z,37.10
2022-11-16T04:43:33.555Z,38.70
2022-11-16T04:46:39.899Z,39.60
2022-11-16T04:49:27.925Z,32.85
2022-11-16T04:52:16.311Z,32.70
2022-11-16T04:55:04.833Z,32.33
2022-11-16T04:57:53.036Z,33.97
2022-11-16T05:00:41.112Z,36.65
2022-11-16T05:03:28.985Z,46.38
2022-11-16T05:06:17.531Z,47.75
2022-11-16T05:09:05.899Z,48.65
2022-11-16T05:11:53.794Z,40.60
2022-11-16T05:14:42.731Z,49.53
2022-11-16T05:17:31.043Z,54.35
2022-11-16T05:20:37.660Z,47.35
2022-11-16T05:23:44.324Z,45.28
2022-11-16T05:26:32.166Z,68.40
2022-11-16T05:29:20.083Z,58.30
2022-11-16T05:32:09.891Z,51.63
2022-11-16T05:34:58.103Z,60.85
2022-11-16T05:37:45.885Z,71.03
2022-11-16T05:40:34.185Z,65.15
2022-11-16T05:43:22.273Z,60.40
2022-11-16T05:46:10.233Z,57.97
2022-11-16T05:49:01.489Z,63.13
2022-11-16T05:51:49.699Z,70.65
2022-11-16T05:54:37.613Z,57.15
2022-11-16T05:57:25.726Z,63.90
2022-11-16T06:00:17.336Z,64.95
2022-11-16T06:03:05.538Z,67.90
2022-11-16T06:05:56.325Z,75.18
2022-11-16T06:08:44.333Z,57.65
2022-11-16T06:11:36.155Z,64.97
2022-11-16T06:14:24.568Z,64.68
2022-11-16T06:17:14.612Z,56.97
2022-11-16T06:20:03.529Z,58.30
2022-11-16T06:22:51.385Z,61.67
2022-11-16T06:25:39.912Z,65.20
2022-11-16T06:28:28.790Z,63.97
2022-11-16T06:31:16.710Z,67.30
2022-11-16T06:34:17.330Z,68.20
2022-11-16T06:37:07.521Z,58.03
2022-11-16T06:39:55.587Z,59.30
2022-11-16T06:42:47.185Z,68.43
2022-11-16T06:46:08.020Z,67.70
2022-11-16T06:49:09.818Z,67.70
2022-11-16T06:52:03.605Z,65.90
2022-11-16T06:54:57.214Z,55.38
2022-11-16T06:57:50.521Z,68.88
2022-11-16T07:00:38.868Z,63.83
2022-11-16T07:03:31.503Z,52.17
2022-11-16T07:06:22.016Z,62.60
2022-11-16T07:09:28.194Z,49.03
2022-11-16T07:12:28.936Z,51.35
2022-11-16T07:15:26.212Z,44.85
2022-11-16T07:18:14.922Z,47.20
2022-11-16T07:21:24.384Z,42.70
2022-11-16T07:27:15.503Z,43.15
2022-11-16T07:30:17.247Z,43.85
2022-11-16T07:33:05.471Z,47.78
2022-11-16T07:36:26.656Z,42.78
2022-11-16T07:39:22.638Z,41.47
2022-11-16T07:42:12.872Z,48.45
2022-11-16T07:45:01.194Z,39.55
2022-11-16T07:48:06.375Z,37.83
2022-11-16T07:51:39.850Z,42.40
2022-11-16T08:05:59.677Z,29.48
2022-11-16T08:09:22.773Z,27.17
2022-11-16T08:20:45.274Z,29.50
2022-11-16T08:24:33.886Z,28.77
2022-11-16T08:28:29.879Z,26.83
2022-11-16T08:52:25.486Z,20.55
2022-11-16T13:36:59.516Z,9.18
2022-11-16T13:47:26.840Z,10.20
2022-11-16T18:18:06.352Z,16.58
2022-11-16T18:21:30.756Z,24.98
